Observation data for Reese Center on 03/20/2017      Previous  Date  Next       Current Mesonet Observations  Soil Data  Daily Summary Page  Observations in Plain Language
KREE 200505Z 20013KT 20/06 A301 RMK A01 T01970062  RH  042%=      5-min Rain = 0
KREE 200510Z 19013KT 19/06 A301 RMK A01 T01930062  RH  043%=      5-min Rain = 0
KREE 200515Z 20014KT 19/06 A301 RMK A01 T01920063  RH  043%=      5-min Rain = 0
KREE 200520Z 20013KT 19/06 A301 RMK A01 T01890063  RH  044%=      5-min Rain = 0
KREE 200525Z 20013KT 19/06 A301 RMK A01 T01860063  RH  045%=      5-min Rain = 0
KREE 200530Z 19013KT 18/06 A301 RMK A01 T01830063  RH  046%=      5-min Rain = 0
KREE 200535Z 20013KT 18/06 A301 RMK A01 T01810064  RH  047%=      5-min Rain = 0
KREE 200540Z 20013KT 18/07 A301 RMK A01 T01800065  RH  048%=      5-min Rain = 0
KREE 200545Z 20012KT 18/07 A301 RMK A01 T01780066  RH  048%=      5-min Rain = 0
KREE 200550Z 20010KT 18/07 A301 RMK A01 T01750066  RH  049%=      5-min Rain = 0
KREE 200555Z 20011KT 17/07 A301 RMK A01 T01740066  RH  050%=      5-min Rain = 0
KREE 200600Z 20012KT 17/07 A3009 RMK A01 T01730066  RH  050%=      5-min Rain = 0
KREE 200605Z 20011KT 17/07 A3009 RMK A01 T01720067  RH  051%=      5-min Rain = 0
KREE 200610Z 20011KT 17/07 A3009 RMK A01 T01720067  RH  051%=      5-min Rain = 0
KREE 200615Z 21011KT 17/07 A3009 RMK A01 T01700067  RH  051%=      5-min Rain = 0
KREE 200620Z 21011KT 17/07 A3009 RMK A01 T01680067  RH  052%=      5-min Rain = 0
KREE 200625Z 20013KT 17/07 A3009 RMK A01 T01680068  RH  052%=      5-min Rain = 0
KREE 200630Z 20013KT 17/07 A3009 RMK A01 T01700070  RH  052%=      5-min Rain = 0
KREE 200635Z 20014KT 17/07 A3009 RMK A01 T01730073  RH  052%=      5-min Rain = 0
KREE 200640Z 20014KT 17/08 A3009 RMK A01 T01740075  RH  053%=      5-min Rain = 0
KREE 200645Z 20014KT 17/08 A3009 RMK A01 T01740077  RH  054%=      5-min Rain = 0
KREE 200650Z 21014G20KT 17/08 A3009 RMK A01 T01740080  RH  055%=      5-min Rain = 0
KREE 200655Z 21013KT 17/08 A3009 RMK A01 T01730081  RH  055%=      5-min Rain = 0
KREE 200700Z 21013KT 17/08 A3009 RMK A01 T01700081  RH  057%=      5-min Rain = 0
KREE 200705Z 21013KT 17/08 A3009 RMK A01 T01680082  RH  058%=      5-min Rain = 0
KREE 200710Z 21013KT 17/08 A3009 RMK A01 T01670083  RH  059%=      5-min Rain = 0
KREE 200715Z 22011KT 16/09 A3009 RMK A01 T01640086  RH  060%=      5-min Rain = 0
KREE 200720Z 21011KT 16/09 A3009 RMK A01 T01630088  RH  062%=      5-min Rain = 0
KREE 200725Z 21013KT 16/09 A3009 RMK A01 T01620088  RH  063%=      5-min Rain = 0
KREE 200730Z 21012KT 16/09 A3009 RMK A01 T01600089  RH  063%=      5-min Rain = 0
KREE 200735Z 21012KT 16/09 A3009 RMK A01 T01590089  RH  064%=      5-min Rain = 0
KREE 200740Z 21012KT 16/09 A3009 RMK A01 T01560088  RH  065%=      5-min Rain = 0
KREE 200745Z 21012KT 16/09 A3009 RMK A01 T01550088  RH  065%=      5-min Rain = 0
KREE 200750Z 21012KT 15/09 A3008 RMK A01 T01540088  RH  066%=      5-min Rain = 0
KREE 200755Z 21012KT 15/09 A3008 RMK A01 T01540090  RH  067%=      5-min Rain = 0
KREE 200800Z 21012KT 15/09 A3008 RMK A01 T01530090  RH  067%=      5-min Rain = 0
KREE 200805Z 20012KT 15/09 A3008 RMK A01 T01520091  RH  068%=      5-min Rain = 0
KREE 200810Z 21011KT 15/09 A3009 RMK A01 T01510092  RH  069%=      5-min Rain = 0
KREE 200815Z 21012KT 15/10 A3009 RMK A01 T01530095  RH  070%=      5-min Rain = 0
KREE 200820Z 21012KT 15/10 A3009 RMK A01 T01540097  RH  070%=      5-min Rain = 0
KREE 200825Z 22012KT 15/10 A3009 RMK A01 T01520097  RH  071%=      5-min Rain = 0
KREE 200830Z 22011KT 15/10 A3009 RMK A01 T01520098  RH  071%=      5-min Rain = 0
KREE 200835Z 21011KT 15/10 A3009 RMK A01 T01500098  RH  072%=      5-min Rain = 0
KREE 200840Z 21011KT 15/10 A3008 RMK A01 T01480098  RH  073%=      5-min Rain = 0
KREE 200845Z 21011KT 15/10 A3008 RMK A01 T01460098  RH  074%=      5-min Rain = 0
KREE 200850Z 21011KT 15/10 A3008 RMK A01 T01460098  RH  074%=      5-min Rain = 0
KREE 200855Z 21012KT 15/10 A3008 RMK A01 T01450099  RH  075%=      5-min Rain = 0
KREE 200900Z 21011KT 15/10 A3008 RMK A01 T01470100  RH  075%=      5-min Rain = 0
KREE 200905Z 20010KT 15/10 A3008 RMK A01 T01460100  RH  075%=      5-min Rain = 0
KREE 200910Z 20011KT 14/10 A3008 RMK A01 T01440100  RH  076%=      5-min Rain = 0
KREE 200915Z 20011KT 14/10 A3008 RMK A01 T01430100  RH  077%=      5-min Rain = 0
KREE 200920Z 20011KT 14/10 A3007 RMK A01 T01440102  RH  077%=      5-min Rain = 0
KREE 200925Z 21011KT 14/10 A3007 RMK A01 T01440102  RH  077%=      5-min Rain = 0
KREE 200930Z 21012KT 14/10 A3007 RMK A01 T01440103  RH  078%=      5-min Rain = 0
KREE 200935Z 21011KT 14/10 A3007 RMK A01 T01430103  RH  078%=      5-min Rain = 0
KREE 200940Z 22011KT 14/10 A3007 RMK A01 T01410103  RH  079%=      5-min Rain = 0
KREE 200945Z 22012KT 14/10 A3007 RMK A01 T01410103  RH  079%=      5-min Rain = 0
KREE 200950Z 22012KT 14/10 A3007 RMK A01 T01400103  RH  080%=      5-min Rain = 0
KREE 200955Z 21012KT 14/10 A3007 RMK A01 T01390103  RH  080%=      5-min Rain = 0
KREE 201000Z 21011KT 14/10 A3007 RMK A01 T01390103  RH  080%=      5-min Rain = 0
KREE 201005Z 22011KT 14/10 A3007 RMK A01 T01390103  RH  080%=      5-min Rain = 0
KREE 201010Z 22011KT 14/10 A3007 RMK A01 T01380103  RH  081%=      5-min Rain = 0
KREE 201015Z 22011KT 14/10 A3007 RMK A01 T01360102  RH  081%=      5-min Rain = 0
KREE 201020Z 22012KT 14/10 A3007 RMK A01 T01370102  RH  081%=      5-min Rain = 0
KREE 201025Z 22012KT 14/10 A3007 RMK A01 T01380103  RH  081%=      5-min Rain = 0
KREE 201030Z 22012KT 14/10 A3007 RMK A01 T01380103  RH  081%=      5-min Rain = 0
KREE 201035Z 22012KT 14/10 A3008 RMK A01 T01370102  RH  081%=      5-min Rain = 0
KREE 201040Z 22011KT 14/10 A3008 RMK A01 T01370103  RH  081%=      5-min Rain = 0
KREE 201045Z 22011KT 14/10 A3008 RMK A01 T01390104  RH  081%=      5-min Rain = 0
KREE 201050Z 23010KT 14/10 A3008 RMK A01 T01390104  RH  081%=      5-min Rain = 0
KREE 201055Z 23011KT 14/10 A3009 RMK A01 T01390104  RH  081%=      5-min Rain = 0
KREE 201100Z 23010KT 14/10 A3009 RMK A01 T01370103  RH  081%=      5-min Rain = 0
KREE 201105Z 23009KT 14/10 A3009 RMK A01 T01350102  RH  082%=      5-min Rain = 0
KREE 201110Z 23009KT 13/10 A3009 RMK A01 T01340101  RH  082%=      5-min Rain = 0
KREE 201115Z 22009KT 13/10 A3009 RMK A01 T01310099  RH  082%=      5-min Rain = 0
KREE 201120Z 21009KT 13/10 A3009 RMK A01 T01290099  RH  084%=      5-min Rain = 0
KREE 201125Z 21009KT 13/10 A3009 RMK A01 T01280099  RH  084%=      5-min Rain = 0
KREE 201130Z 22008KT 13/10 A3009 RMK A01 T01260098  RH  084%=      5-min Rain = 0
KREE 201135Z 22008KT 12/10 A3009 RMK A01 T01240097  RH  085%=      5-min Rain = 0
KREE 201140Z 22007KT 12/10 A3009 RMK A01 T01230097  RH  085%=      5-min Rain = 0
KREE 201145Z 21008KT 12/10 A3009 RMK A01 T01230097  RH  085%=      5-min Rain = 0
KREE 201150Z 22007KT 12/10 A3009 RMK A01 T01220096  RH  085%=      5-min Rain = 0
KREE 201155Z 22007KT 12/10 A3009 RMK A01 T01210096  RH  086%=      5-min Rain = 0
KREE 201200Z 22007KT 12/10 A3009 RMK A01 T01200095  RH  086%=      5-min Rain = 0
KREE 201205Z 22008KT 12/09 A3009 RMK A01 T01180093  RH  086%=      5-min Rain = 0
KREE 201210Z 21008KT 12/09 A3009 RMK A01 T01150092  RH  087%=      5-min Rain = 0
KREE 201215Z 22008KT 11/09 A3009 RMK A01 T01130091  RH  088%=      5-min Rain = 0
KREE 201220Z 22008KT 11/09 A3009 RMK A01 T01120090  RH  088%=      5-min Rain = 0
KREE 201225Z 22008KT 11/09 A3009 RMK A01 T01090089  RH  089%=      5-min Rain = 0
KREE 201230Z 23007KT 11/09 A301 RMK A01 T01070088  RH  089%=      5-min Rain = 0
KREE 201235Z 32010KT 11/09 A3011 RMK A01 T01050087  RH  090%=      5-min Rain = 0
KREE 201240Z 25007KT 11/09 A3011 RMK A01 T01090092  RH  091%=      5-min Rain = 0
KREE 201245Z 27008KT 11/09 A3011 RMK A01 T01140094  RH  089%=      5-min Rain = 0
KREE 201250Z 30007KT 11/09 A3012 RMK A01 T01130093  RH  089%=      5-min Rain = 0
KREE 201255Z 30007KT 11/09 A3012 RMK A01 T01100091  RH  089%=      5-min Rain = 0
KREE 201300Z 28006KT 11/09 A3012 RMK A01 T01090092  RH  090%=      5-min Rain = 0
KREE 201305Z 31007KT 11/09 A3012 RMK A01 T01070089  RH  090%=      5-min Rain = 0
KREE 201310Z 32006KT 11/09 A3012 RMK A01 T01070090  RH  091%=      5-min Rain = 0
KREE 201315Z 32003KT 11/09 A3012 RMK A01 T01080091  RH  090%=      5-min Rain = 0
KREE 201320Z 31004KT 11/09 A3012 RMK A01 T01100090  RH  089%=      5-min Rain = 0
KREE 201325Z 31003KT 11/09 A3013 RMK A01 T01110091  RH  089%=      5-min Rain = 0
KREE 201330Z 33005KT 11/09 A3013 RMK A01 T01120091  RH  088%=      5-min Rain = 0
KREE 201335Z 28004KT 12/09 A3013 RMK A01 T01150094  RH  088%=      5-min Rain = 0
KREE 201340Z 28003KT 12/10 A3013 RMK A01 T01200097  RH  088%=      5-min Rain = 0
KREE 201345Z 28002KT 12/10 A3013 RMK A01 T01230098  RH  086%=      5-min Rain = 0
KREE 201350Z 27002KT 13/10 A3013 RMK A01 T01270099  RH  084%=      5-min Rain = 0
KREE 201355Z 26002KT 13/10 A3013 RMK A01 T01320101  RH  083%=      5-min Rain = 0
KREE 201400Z 26003KT 14/10 A3013 RMK A01 T01360103  RH  082%=      5-min Rain = 0
KREE 201405Z 26004KT 14/11 A3013 RMK A01 T01390105  RH  081%=      5-min Rain = 0
KREE 201410Z 25005KT 14/11 A3013 RMK A01 T01420106  RH  081%=      5-min Rain = 0
KREE 201415Z 27005KT 15/11 A3013 RMK A01 T01450107  RH  079%=      5-min Rain = 0
KREE 201420Z 26005KT 15/11 A3013 RMK A01 T01480108  RH  078%=      5-min Rain = 0
KREE 201425Z 24007KT 15/11 A3013 RMK A01 T01530107  RH  076%=      5-min Rain = 0
KREE 201430Z 24007KT 16/11 A3013 RMK A01 T01550107  RH  074%=      5-min Rain = 0
KREE 201435Z 24008KT 16/11 A3013 RMK A01 T01570105  RH  072%=      5-min Rain = 0
KREE 201440Z 24009KT 16/10 A3013 RMK A01 T01590104  RH  071%=      5-min Rain = 0
KREE 201445Z 25007KT 16/11 A3013 RMK A01 T01630105  RH  070%=      5-min Rain = 0
KREE 201450Z 24008KT 17/10 A3013 RMK A01 T01670104  RH  068%=      5-min Rain = 0
KREE 201455Z 24009KT 17/10 A3013 RMK A01 T01690102  RH  066%=      5-min Rain = 0
KREE 201500Z 24010KT 17/10 A3013 RMK A01 T01730103  RH  064%=      5-min Rain = 0
KREE 201505Z 25010KT 18/10 A3013 RMK A01 T01780102  RH  062%=      5-min Rain = 0
KREE 201510Z 24010KT 18/10 A3013 RMK A01 T01810099  RH  060%=      5-min Rain = 0
KREE 201515Z 24011KT 18/10 A3013 RMK A01 T01840099  RH  058%=      5-min Rain = 0
KREE 201520Z 24010KT 19/10 A3013 RMK A01 T01870099  RH  057%=      5-min Rain = 0
KREE 201525Z 24010KT 19/10 A3013 RMK A01 T01920096  RH  054%=      5-min Rain = 0
KREE 201530Z 23010KT 19/09 A3013 RMK A01 T01920094  RH  054%=      5-min Rain = 0
KREE 201535Z 24010KT 20/10 A3013 RMK A01 T01950095  RH  053%=      5-min Rain = 0
KREE 201540Z 25008KT 20/10 A3013 RMK A01 T01980095  RH  052%=      5-min Rain = 0
KREE 201545Z 24009KT 20/09 A3013 RMK A01 T02020094  RH  050%=      5-min Rain = 0
KREE 201550Z 25009KT 21/09 A3012 RMK A01 T02060094  RH  049%=      5-min Rain = 0
KREE 201555Z 25009KT 21/09 A3012 RMK A01 T02080092  RH  048%=      5-min Rain = 0
KREE 201600Z 25009KT 21/09 A3012 RMK A01 T02110092  RH  047%=      5-min Rain = 0
KREE 201605Z 26008KT 22/09 A3012 RMK A01 T02170088  RH  044%=      5-min Rain = 0
KREE 201610Z 26007KT 22/09 A3012 RMK A01 T02200087  RH  043%=      5-min Rain = 0
KREE 201615Z 25008KT 22/08 A3012 RMK A01 T02240084  RH  041%=      5-min Rain = 0
KREE 201620Z 26008G13KT 23/08 A3012 RMK A01 T02270078  RH  039%=      5-min Rain = 0
KREE 201625Z 26008KT 23/08 A3012 RMK A01 T02280081  RH  040%=      5-min Rain = 0
KREE 201630Z 26008KT 23/08 A3012 RMK A01 T02310078  RH  038%=      5-min Rain = 0
KREE 201635Z 25008KT 24/07 A3012 RMK A01 T02370073  RH  036%=      5-min Rain = 0
KREE 201640Z 27007KT 24/07 A3012 RMK A01 T02400073  RH  035%=      5-min Rain = 0
KREE 201645Z 26007KT 24/07 A3012 RMK A01 T02410068  RH  033%=      5-min Rain = 0
KREE 201650Z 25008KT 24/07 A3011 RMK A01 T02440065  RH  032%=      5-min Rain = 0
KREE 201655Z 26007KT 25/06 A3011 RMK A01 T02470057  RH  030%=      5-min Rain = 0
KREE 201700Z 25007KT 25/06 A3011 RMK A01 T02490058  RH  030%=      5-min Rain = 0
KREE 201705Z 26006KT 25/06 A3011 RMK A01 T02520059  RH  029%=      5-min Rain = 0
KREE 201710Z 27006KT 26/06 A3011 RMK A01 T02580057  RH  028%=      5-min Rain = 0
KREE 201715Z 27006KT 26/06 A3011 RMK A01 T02610055  RH  027%=      5-min Rain = 0
KREE 201720Z 27005KT 26/06 A3011 RMK A01 T02640058  RH  027%=      5-min Rain = 0
KREE 201725Z 27004KT 27/06 A3011 RMK A01 T02670057  RH  026%=      5-min Rain = 0
KREE 201730Z 27005KT 27/05 A3011 RMK A01 T02690054  RH  026%=      5-min Rain = 0
KREE 201735Z 26006KT 27/06 A3011 RMK A01 T02720057  RH  026%=      5-min Rain = 0
KREE 201740Z 27006G11KT 27/06 A3011 RMK A01 T02740055  RH  025%=      5-min Rain = 0
KREE 201745Z 25006KT 28/05 A3011 RMK A01 T02750050  RH  024%=      5-min Rain = 0
KREE 201750Z 26006KT 28/05 A3011 RMK A01 T02760048  RH  024%=      5-min Rain = 0
KREE 201755Z 25005KT 28/05 A3011 RMK A01 T02790050  RH  024%=      5-min Rain = 0
KREE 201800Z 27006KT 28/02 A301 RMK A01 T02830024  RH  019%=      5-min Rain = 0
KREE 201805Z 26004KT 29/01 A301 RMK A01 T02860013  RH  017%=      5-min Rain = 0
KREE 201810Z 28005G10KT 29/01 A301 RMK A01 T02900009  RH  016%=      5-min Rain = 0
KREE 201815Z 30005G10KT 29/01 A301 RMK A01 T02890008  RH  017%=      5-min Rain = 0
KREE 201820Z 31005KT 29/M01 A3009 RMK A01 T02901005  RH  015%=      5-min Rain = 0
KREE 201825Z 24004KT 29/M01 A3009 RMK A01 T02941005  RH  015%=      5-min Rain = 0
KREE 201830Z 27005KT 29/M00 A3009 RMK A01 T02941004  RH  015%=      5-min Rain = 0
KREE 201835Z 27003KT 30/M01 A3009 RMK A01 T02981010  RH  014%=      5-min Rain = 0
KREE 201840Z 29005KT 30/M02 A3008 RMK A01 T03011018  RH  013%=      5-min Rain = 0
KREE 201845Z 29006KT 30/M02 A3008 RMK A01 T03001024  RH  012%=      5-min Rain = 0
KREE 201850Z 33005KT 30/M03 A3008 RMK A01 T02991029  RH  012%=      5-min Rain = 0
KREE 201855Z 31005KT 30/M03 A3007 RMK A01 T03011026  RH  012%=      5-min Rain = 0
KREE 201900Z 30004KT 30/M03 A3007 RMK A01 T03041028  RH  012%=      5-min Rain = 0
KREE 201905Z 32004KT 31/M03 A3007 RMK A01 T03061031  RH  011%=      5-min Rain = 0
KREE 201910Z 24003G8KT 31/M03 A3006 RMK A01 T03091030  RH  011%=      5-min Rain = 0
KREE 201915Z 21004G9KT 31/M03 A3006 RMK A01 T03091028  RH  011%=      5-min Rain = 0
KREE 201920Z 22004KT 31/M03 A3006 RMK A01 T03131030  RH  011%=      5-min Rain = 0
KREE 201925Z 22005KT 31/M03 A3006 RMK A01 T03121032  RH  011%=      5-min Rain = 0
KREE 201930Z 23003G8KT 31/M03 A3005 RMK A01 T03121027  RH  011%=      5-min Rain = 0
KREE 201935Z 26004KT 31/M03 A3005 RMK A01 T03111034  RH  011%=      5-min Rain = 0
KREE 201940Z 22005KT 32/M03 A3005 RMK A01 T03151030  RH  011%=      5-min Rain = 0
KREE 201945Z 21005KT 31/M03 A3004 RMK A01 T03121034  RH  011%=      5-min Rain = 0
KREE 201950Z 22005G10KT 32/M03 A3004 RMK A01 T03151032  RH  011%=      5-min Rain = 0
KREE 201955Z 25006KT 32/M03 A3004 RMK A01 T03191034  RH  010%=      5-min Rain = 0
KREE 202000Z 24007KT 32/M04 A3004 RMK A01 T03151039  RH  010%=      5-min Rain = 0
KREE 202005Z 20004KT 32/M03 A3004 RMK A01 T03191030  RH  010%=      5-min Rain = 0
KREE 202010Z 16004G9KT 32/M03 A3004 RMK A01 T03231030  RH  010%=      5-min Rain = 0
KREE 202015Z 19004KT 32/M04 A3003 RMK A01 T03211038  RH  010%=      5-min Rain = 0
KREE 202020Z 20005KT 32/M04 A3003 RMK A01 T03221036  RH  010%=      5-min Rain = 0
KREE 202025Z 26011KT 32/M04 A3003 RMK A01 T03211042  RH  010%=      5-min Rain = 0
KREE 202030Z 26008G13KT 32/M05 A3003 RMK A01 T03171047  RH  009%=      5-min Rain = 0
KREE 202035Z 27007G12KT 32/M05 A3003 RMK A01 T03191046  RH  009%=      5-min Rain = 0
KREE 202040Z 29007KT 32/M05 A3003 RMK A01 T03181049  RH  009%=      5-min Rain = 0
KREE 202045Z 29006G11KT 32/M06 A3002 RMK A01 T03171056  RH  009%=      5-min Rain = 0
KREE 202050Z 30007KT 32/M06 A3002 RMK A01 T03171058  RH  009%=      5-min Rain = 0
KREE 202055Z 27006KT 32/M05 A3002 RMK A01 T03201052  RH  009%=      5-min Rain = 0
KREE 202100Z 30004G10KT 32/M05 A3002 RMK A01 T03211054  RH  009%=      5-min Rain = 0
KREE 202105Z 28009G14KT 32/M05 A3001 RMK A01 T03221053  RH  009%=      5-min Rain = 0
KREE 202110Z 31008KT 32/M05 A3001 RMK A01 T03221053  RH  009%=      5-min Rain = 0
KREE 202115Z 24011G19KT 32/M05 A3001 RMK A01 T03231052  RH  009%=      5-min Rain = 0
KREE 202120Z 26010G16KT 32/M06 A3001 RMK A01 T03211055  RH  009%=      5-min Rain = 0
KREE 202125Z 23009G16KT 32/M06 A3001 RMK A01 T03211057  RH  008%=      5-min Rain = 0
KREE 202130Z 23004G10KT 32/M06 A3001 RMK A01 T03181063  RH  008%=      5-min Rain = 0
KREE 202135Z 23005G11KT 33/M06 A3001 RMK A01 T03251055  RH  008%=      5-min Rain = 0
KREE 202140Z 25007KT 32/M06 A3001 RMK A01 T03231055  RH  008%=      5-min Rain = 0
KREE 202145Z 28005KT 32/M06 A30 RMK A01 T03221057  RH  008%=      5-min Rain = 0
KREE 202150Z 27009G14KT 32/M05 A30 RMK A01 T03221053  RH  009%=      5-min Rain = 0
KREE 202155Z 21003G8KT 32/M06 A30 RMK A01 T03211060  RH  008%=      5-min Rain = 0
KREE 202200Z 29007G14KT 32/M06 A30 RMK A01 T03241058  RH  008%=      5-min Rain = 0
KREE 202205Z 28010KT 32/M07 A30 RMK A01 T03221065  RH  008%=      5-min Rain = 0
KREE 202210Z 29011KT 32/M07 A30 RMK A01 T03211066  RH  008%=      5-min Rain = 0
KREE 202215Z 27006KT 32/M07 A2999 RMK A01 T03201066  RH  008%=      5-min Rain = 0
KREE 202220Z 28008G13KT 32/M06 A2999 RMK A01 T03211061  RH  008%=      5-min Rain = 0
KREE 202225Z 24003KT 32/M07 A2999 RMK A01 T03211067  RH  008%=      5-min Rain = 0
KREE 202230Z 24004G11KT 32/M06 A2999 RMK A01 T03231064  RH  008%=      5-min Rain = 0
KREE 202235Z 26011G17KT 32/M06 A2999 RMK A01 T03221061  RH  008%=      5-min Rain = 0
KREE 202240Z 27009G14KT 32/M06 A2999 RMK A01 T03201064  RH  008%=      5-min Rain = 0
KREE 202245Z 27001KT 32/M07 A2999 RMK A01 T03221071  RH  008%=      5-min Rain = 0
KREE 202250Z 30005KT 32/M07 A2999 RMK A01 T03241066  RH  008%=      5-min Rain = 0
KREE 202255Z 29006G15KT 32/M07 A2999 RMK A01 T03221065  RH  008%=      5-min Rain = 0
KREE 202300Z 25008G15KT 32/M06 A2999 RMK A01 T03211063  RH  008%=      5-min Rain = 0
KREE 202305Z 28008KT 32/M06 A2998 RMK A01 T03201064  RH  008%=      5-min Rain = 0
KREE 202310Z 28008KT 32/M07 A2998 RMK A01 T03191067  RH  008%=      5-min Rain = 0
KREE 202315Z 29007KT 32/M07 A2998 RMK A01 T03181071  RH  008%=      5-min Rain = 0
KREE 202320Z 27005KT 32/M07 A2998 RMK A01 T03191068  RH  008%=      5-min Rain = 0
KREE 202325Z 28009G17KT 32/M06 A2998 RMK A01 T03191064  RH  008%=      5-min Rain = 0
KREE 202330Z 30009G14KT 32/M06 A2998 RMK A01 T03171064  RH  008%=      5-min Rain = 0
KREE 202335Z 30010KT 32/M07 A2998 RMK A01 T03151069  RH  008%=      5-min Rain = 0
KREE 202340Z 29010KT 31/M07 A2998 RMK A01 T03141072  RH  008%=      5-min Rain = 0
KREE 202345Z 26007KT 31/M07 A2998 RMK A01 T03111072  RH  008%=      5-min Rain = 0
KREE 202350Z 27007KT 31/M07 A2998 RMK A01 T03081069  RH  008%=      5-min Rain = 0
KREE 202355Z 28007KT 31/M07 A2998 RMK A01 T03091066  RH  008%=      5-min Rain = 0
KREE 210000Z 28007KT 30/M07 A2998 RMK A01 T03011065  RH  009%=      5-min Rain = 0
KREE 210005Z 28006KT 30/M06 A2998 RMK A01 T02961061  RH  009%=      5-min Rain = 0
KREE 210010Z 28006KT 30/M06 A2998 RMK A01 T02951057  RH  010%=      5-min Rain = 0
KREE 210015Z 28005KT 29/M05 A2998 RMK A01 T02941053  RH  010%=      5-min Rain = 0
KREE 210020Z 28005KT 29/M05 A2998 RMK A01 T02901053  RH  010%=      5-min Rain = 0
KREE 210025Z 28005KT 29/M06 A2998 RMK A01 T02861059  RH  010%=      5-min Rain = 0
KREE 210030Z 29004KT 29/M06 A2998 RMK A01 T02851055  RH  011%=      5-min Rain = 0
KREE 210035Z 28003KT 28/M05 A2998 RMK A01 T02801051  RH  011%=      5-min Rain = 0
KREE 210040Z 29004KT 28/M05 A2998 RMK A01 T02791054  RH  011%=      5-min Rain = 0
KREE 210045Z 28004KT 28/M05 A2999 RMK A01 T02781052  RH  011%=      5-min Rain = 0
KREE 210050Z 28003KT 27/M05 A2999 RMK A01 T02741052  RH  011%=      5-min Rain = 0
KREE 210055Z 28003KT 27/M06 A2999 RMK A01 T02711055  RH  011%=      5-min Rain = 0
KREE 210100Z 27003KT 27/M06 A2999 RMK A01 T02681060  RH  011%=      5-min Rain = 0
KREE 210105Z 26003KT 27/M06 A2998 RMK A01 T02681064  RH  011%=      5-min Rain = 0
KREE 210110Z 25003KT 27/M07 A2998 RMK A01 T02671066  RH  011%=      5-min Rain = 0
KREE 210115Z 25004KT 27/M07 A2999 RMK A01 T02681068  RH  011%=      5-min Rain = 0
KREE 210120Z 24004KT 27/M06 A2999 RMK A01 T02661063  RH  011%=      5-min Rain = 0
KREE 210125Z 23003KT 25/M06 A2999 RMK A01 T02541064  RH  012%=      5-min Rain = 0
KREE 210130Z 25002KT 24/M05 A2999 RMK A01 T02411054  RH  014%=      5-min Rain = 0
KREE 210135Z 26002KT 24/M07 A2999 RMK A01 T02371065  RH  013%=      5-min Rain = 0
KREE 210140Z 27002KT 24/M07 A2999 RMK A01 T02441071  RH  012%=      5-min Rain = 0
KREE 210145Z 29005KT 24/M07 A2999 RMK A01 T02411065  RH  013%=      5-min Rain = 0
KREE 210150Z 28005KT 24/M07 A30 RMK A01 T02431071  RH  012%=      5-min Rain = 0
KREE 210155Z 26006KT 25/M07 A30 RMK A01 T02491070  RH  012%=      5-min Rain = 0
KREE 210200Z 25005KT 25/M07 A30 RMK A01 T02521068  RH  012%=      5-min Rain = 0
KREE 210205Z 26004KT 24/M07 A30 RMK A01 T02441069  RH  012%=      5-min Rain = 0
KREE 210210Z 23005KT 23/M07 A30 RMK A01 T02301065  RH  014%=      5-min Rain = 0
KREE 210215Z 23006KT 23/M06 A30 RMK A01 T02271064  RH  014%=      5-min Rain = 0
KREE 210220Z 24005KT 23/M06 A30 RMK A01 T02251064  RH  014%=      5-min Rain = 0
KREE 210225Z 26005KT 23/M07 A30 RMK A01 T02291073  RH  013%=      5-min Rain = 0
KREE 210230Z 26005KT 23/M08 A30 RMK A01 T02341075  RH  012%=      5-min Rain = 0
KREE 210235Z 27005KT 23/M07 A30 RMK A01 T02261073  RH  013%=      5-min Rain = 0
KREE 210240Z 28005KT 22/M07 A30 RMK A01 T02231071  RH  013%=      5-min Rain = 0
KREE 210245Z 29007KT 22/M07 A30 RMK A01 T02201069  RH  014%=      5-min Rain = 0
KREE 210250Z 28006KT 22/M07 A30 RMK A01 T02171070  RH  014%=      5-min Rain = 0
KREE 210255Z 29005KT 22/M07 A30 RMK A01 T02191070  RH  014%=      5-min Rain = 0
KREE 210300Z 29006KT 22/M07 A3001 RMK A01 T02181065  RH  015%=      5-min Rain = 0
KREE 210305Z 28006KT 21/M06 A3001 RMK A01 T02051061  RH  016%=      5-min Rain = 0
KREE 210310Z 28006KT 20/M06 A3001 RMK A01 T01971061  RH  017%=      5-min Rain = 0
KREE 210315Z 28005KT 19/M06 A3001 RMK A01 T01921063  RH  017%=      5-min Rain = 0
KREE 210320Z 28005KT 19/M07 A3001 RMK A01 T01921067  RH  017%=      5-min Rain = 0
KREE 210325Z 19005KT 19/M05 A3001 RMK A01 T01911053  RH  019%=      5-min Rain = 0
KREE 210330Z 21005KT 19/M06 A3001 RMK A01 T01921056  RH  018%=      5-min Rain = 0
KREE 210335Z 23004KT 20/M06 A3001 RMK A01 T01991061  RH  017%=      5-min Rain = 0
KREE 210340Z 23006KT 20/M06 A3001 RMK A01 T02011058  RH  017%=      5-min Rain = 0
KREE 210345Z 23006KT 19/M06 A3001 RMK A01 T01941058  RH  018%=      5-min Rain = 0
KREE 210350Z 24005KT 20/M06 A3001 RMK A01 T01951063  RH  017%=      5-min Rain = 0
KREE 210355Z 24005KT 20/M07 A3001 RMK A01 T02041067  RH  016%=      5-min Rain = 0
KREE 210400Z 24004KT 20/M06 A3001 RMK A01 T02001058  RH  017%=      5-min Rain = 0
KREE 210405Z 25004KT 20/M06 A3001 RMK A01 T01951061  RH  017%=      5-min Rain = 0
KREE 210410Z 25003KT 20/M06 A3001 RMK A01 T01961062  RH  017%=      5-min Rain = 0
KREE 210415Z 27003KT 19/M06 A3001 RMK A01 T01911055  RH  019%=      5-min Rain = 0
KREE 210420Z 27002KT 19/M06 A3001 RMK A01 T01851057  RH  019%=      5-min Rain = 0
KREE 210425Z 27002KT 19/M06 A3001 RMK A01 T01881060  RH  018%=      5-min Rain = 0
KREE 210430Z 27002KT 19/M06 A3001 RMK A01 T01871061  RH  018%=      5-min Rain = 0
KREE 210435Z 27003KT 18/M06 A3001 RMK A01 T01811059  RH  019%=      5-min Rain = 0
KREE 210440Z 26003KT 17/M05 A3001 RMK A01 T01721053  RH  021%=      5-min Rain = 0
KREE 210445Z 25003KT 17/M05 A3001 RMK A01 T01731050  RH  022%=      5-min Rain = 0
KREE 210450Z 25005KT 17/M05 A3001 RMK A01 T01651045  RH  024%=      5-min Rain = 0
KREE 210455Z 26005KT 16/M04 A3001 RMK A01 T01561041  RH  026%=      5-min Rain = 0
KREE 210500Z 26005KT 15/M04 A3001 RMK A01 T01521042  RH  026%=      5-min Rain = 0

Page generated in 0.085 seconds.